メインページ
METAR-TAF:

METAR-TAF

空港 :

バグダード, イラク

バグダード国際空港

緯度: 33-15-45N, 経度: 44-14-04E, 海抜: 35m

現時点の気象観測

当レポートは34分前の15:00(UTC)に作成
西の風 15kt
気温 42°C
湿度 13%
気圧 1000 hPa
視程10km以上
1,500メートル以下は雲なし、積乱雲なし

METAR: ORBI 251500Z 27015KT CAVOK 42/08 Q1000 NOSIG

時間: 18:34 (15:34 UTC)


TAF: 見つかりません

4,000以上の空港の気象観測と天気予報(METAR報とTAF報)

利用可能な観測所は地図上に黄色い丸と赤い丸で示す。

丸の上にカーソルを重ねると観測所名を参照できる。

次にクリックすると気象観測と天気予報を参照できる。

マップの切り替え:黒色「×」印の緑ボタンをクリックして拡大、「-」印の緑ボタンをクリックして縮小、緑色の三角印をクリックして隣りの地図に切り替え


METAR-TAF: